sensor_id;sensor_type;location;lat;lon;timestamp;temperature;humidity
20481;DHT22;10399;50.754;3.366;2023-12-20T00:01:41;8.50;99.90
20481;DHT22;10399;50.754;3.366;2023-12-20T00:04:14;8.40;99.90
20481;DHT22;10399;50.754;3.366;2023-12-20T00:06:42;8.50;99.90
20481;DHT22;10399;50.754;3.366;2023-12-20T00:09:21;8.40;99.90
20481;DHT22;10399;50.754;3.366;2023-12-20T00:11:48;8.40;99.90
20481;DHT22;10399;50.754;3.366;2023-12-20T00:14:15;8.50;99.90
20481;DHT22;10399;50.754;3.366;2023-12-20T00:16:42;8.40;99.90
20481;DHT22;10399;50.754;3.366;2023-12-20T00:19:31;8.30;99.90
20481;DHT22;10399;50.754;3.366;2023-12-20T00:21:58;8.30;99.90
20481;DHT22;10399;50.754;3.366;2023-12-20T00:24:26;8.30;99.90
20481;DHT22;10399;50.754;3.366;2023-12-20T00:26:56;8.30;99.90
20481;DHT22;10399;50.754;3.366;2023-12-20T00:29:23;8.30;99.90
20481;DHT22;10399;50.754;3.366;2023-12-20T00:32:10;8.30;99.90
20481;DHT22;10399;50.754;3.366;2023-12-20T00:34:37;8.30;99.90
20481;DHT22;10399;50.754;3.366;2023-12-20T00:37:06;8.30;99.90
20481;DHT22;10399;50.754;3.366;2023-12-20T00:39:33;8.20;99.90
20481;DHT22;10399;50.754;3.366;2023-12-20T00:42:00;8.20;99.90
20481;DHT22;10399;50.754;3.366;2023-12-20T00:44:48;8.40;99.90
20481;DHT22;10399;50.754;3.366;2023-12-20T00:47:15;8.50;99.90
20481;DHT22;10399;50.754;3.366;2023-12-20T00:49:45;8.50;99.90
20481;DHT22;10399;50.754;3.366;2023-12-20T00:52:12;8.40;99.90
20481;DHT22;10399;50.754;3.366;2023-12-20T00:54:58;8.30;99.90
20481;DHT22;10399;50.754;3.366;2023-12-20T00:57:28;8.50;99.90
20481;DHT22;10399;50.754;3.366;2023-12-20T00:59:55;8.50;99.90
20481;DHT22;10399;50.754;3.366;2023-12-20T01:02:22;8.40;99.90
20481;DHT22;10399;50.754;3.366;2023-12-20T01:04:49;8.20;99.90
20481;DHT22;10399;50.754;3.366;2023-12-20T01:07:16;8.10;99.90
20481;DHT22;10399;50.754;3.366;2023-12-20T01:10:05;8.30;99.90
20481;DHT22;10399;50.754;3.366;2023-12-20T01:12:32;8.20;99.90
20481;DHT22;10399;50.754;3.366;2023-12-20T01:14:59;8.10;99.90
20481;DHT22;10399;50.754;3.366;2023-12-20T01:17:29;8.20;99.90
20481;DHT22;10399;50.754;3.366;2023-12-20T01:23:04;8.20;99.90
20481;DHT22;10399;50.754;3.366;2023-12-20T01:25:31;8.10;99.90
20481;DHT22;10399;50.754;3.366;2023-12-20T01:27:59;8.20;99.90
20481;DHT22;10399;50.754;3.366;2023-12-20T01:30:29;8.40;99.90
20481;DHT22;10399;50.754;3.366;2023-12-20T01:33:14;8.20;99.90
20481;DHT22;10399;50.754;3.366;2023-12-20T01:35:41;8.00;99.90
20481;DHT22;10399;50.754;3.366;2023-12-20T01:38:09;8.10;99.90
20481;DHT22;10399;50.754;3.366;2023-12-20T01:40:35;8.10;99.90
20481;DHT22;10399;50.754;3.366;2023-12-20T01:43:09;8.10;99.90
20481;DHT22;10399;50.754;3.366;2023-12-20T01:46:01;8.00;99.90
20481;DHT22;10399;50.754;3.366;2023-12-20T01:48:29;8.10;99.90
20481;DHT22;10399;50.754;3.366;2023-12-20T01:51:00;8.10;99.90
20481;DHT22;10399;50.754;3.366;2023-12-20T01:53:27;8.00;99.90
20481;DHT22;10399;50.754;3.366;2023-12-20T01:59:02;7.80;99.90
20481;DHT22;10399;50.754;3.366;2023-12-20T02:01:31;7.90;99.90
20481;DHT22;10399;50.754;3.366;2023-12-20T02:03:59;7.60;99.90
20481;DHT22;10399;50.754;3.366;2023-12-20T02:06:30;7.70;99.90
20481;DHT22;10399;50.754;3.366;2023-12-20T02:08:58;7.80;99.90
20481;DHT22;10399;50.754;3.366;2023-12-20T02:11:26;7.80;99.90
20481;DHT22;10399;50.754;3.366;2023-12-20T02:13:53;7.80;99.90
20481;DHT22;10399;50.754;3.366;2023-12-20T02:16:21;7.80;99.90
20481;DHT22;10399;50.754;3.366;2023-12-20T02:18:49;7.90;99.90
20481;DHT22;10399;50.754;3.366;2023-12-20T02:21:16;7.80;99.90
20481;DHT22;10399;50.754;3.366;2023-12-20T02:23:43;7.80;99.90
20481;DHT22;10399;50.754;3.366;2023-12-20T02:26:11;7.70;99.90
20481;DHT22;10399;50.754;3.366;2023-12-20T02:28:40;7.70;99.90
20481;DHT22;10399;50.754;3.366;2023-12-20T02:31:07;7.60;99.90
20481;DHT22;10399;50.754;3.366;2023-12-20T02:33:35;7.70;99.90
20481;DHT22;10399;50.754;3.366;2023-12-20T02:36:02;7.70;99.90
20481;DHT22;10399;50.754;3.366;2023-12-20T02:38:29;7.70;99.90
20481;DHT22;10399;50.754;3.366;2023-12-20T02:40:56;7.70;99.90
20481;DHT22;10399;50.754;3.366;2023-12-20T02:43:23;7.60;99.90
20481;DHT22;10399;50.754;3.366;2023-12-20T02:45:50;7.60;99.90
20481;DHT22;10399;50.754;3.366;2023-12-20T02:48:18;7.40;99.90
20481;DHT22;10399;50.754;3.366;2023-12-20T02:50:46;7.50;99.90
20481;DHT22;10399;50.754;3.366;2023-12-20T02:53:14;7.50;99.90
20481;DHT22;10399;50.754;3.366;2023-12-20T02:55:41;7.60;99.90
20481;DHT22;10399;50.754;3.366;2023-12-20T02:58:08;7.50;99.90
20481;DHT22;10399;50.754;3.366;2023-12-20T03:00:35;7.50;99.90
20481;DHT22;10399;50.754;3.366;2023-12-20T03:03:02;7.30;99.90
20481;DHT22;10399;50.754;3.366;2023-12-20T03:05:30;7.40;99.90
20481;DHT22;10399;50.754;3.366;2023-12-20T03:07:57;7.40;99.90
20481;DHT22;10399;50.754;3.366;2023-12-20T03:10:24;7.60;99.90
20481;DHT22;10399;50.754;3.366;2023-12-20T03:12:53;7.60;99.90
20481;DHT22;10399;50.754;3.366;2023-12-20T03:15:23;7.70;99.90
20481;DHT22;10399;50.754;3.366;2023-12-20T03:17:50;7.70;99.90
20481;DHT22;10399;50.754;3.366;2023-12-20T03:20:17;7.60;99.90
20481;DHT22;10399;50.754;3.366;2023-12-20T03:22:44;7.40;99.90
20481;DHT22;10399;50.754;3.366;2023-12-20T03:25:11;7.50;99.90
20481;DHT22;10399;50.754;3.366;2023-12-20T03:27:38;7.40;99.90
20481;DHT22;10399;50.754;3.366;2023-12-20T03:30:06;7.30;99.90
20481;DHT22;10399;50.754;3.366;2023-12-20T03:32:33;7.40;99.90
20481;DHT22;10399;50.754;3.366;2023-12-20T03:35:01;7.50;99.90
20481;DHT22;10399;50.754;3.366;2023-12-20T03:37:28;7.50;99.90
20481;DHT22;10399;50.754;3.366;2023-12-20T03:39:58;7.60;99.90
20481;DHT22;10399;50.754;3.366;2023-12-20T03:42:25;7.50;99.90
20481;DHT22;10399;50.754;3.366;2023-12-20T03:44:52;7.50;99.90
20481;DHT22;10399;50.754;3.366;2023-12-20T03:47:19;7.50;99.90
20481;DHT22;10399;50.754;3.366;2023-12-20T03:49:46;7.40;99.90
20481;DHT22;10399;50.754;3.366;2023-12-20T03:52:13;7.50;99.90
20481;DHT22;10399;50.754;3.366;2023-12-20T03:54:40;7.50;99.90
20481;DHT22;10399;50.754;3.366;2023-12-20T03:57:09;7.40;99.90
20481;DHT22;10399;50.754;3.366;2023-12-20T03:59:37;7.60;99.90
20481;DHT22;10399;50.754;3.366;2023-12-20T04:02:04;7.70;99.90
20481;DHT22;10399;50.754;3.366;2023-12-20T04:04:31;7.60;99.90
20481;DHT22;10399;50.754;3.366;2023-12-20T04:06:58;7.60;99.90
20481;DHT22;10399;50.754;3.366;2023-12-20T04:09:27;7.70;99.90
20481;DHT22;10399;50.754;3.366;2023-12-20T04:11:54;7.70;99.90
20481;DHT22;10399;50.754;3.366;2023-12-20T04:14:21;7.60;99.90
20481;DHT22;10399;50.754;3.366;2023-12-20T04:16:48;7.50;99.90
20481;DHT22;10399;50.754;3.366;2023-12-20T04:19:15;7.50;99.90
20481;DHT22;10399;50.754;3.366;2023-12-20T04:21:42;7.40;99.90
20481;DHT22;10399;50.754;3.366;2023-12-20T04:24:09;7.30;99.90
20481;DHT22;10399;50.754;3.366;2023-12-20T04:26:36;7.40;99.90
20481;DHT22;10399;50.754;3.366;2023-12-20T04:29:03;7.40;99.90
20481;DHT22;10399;50.754;3.366;2023-12-20T04:31:30;7.40;99.90
20481;DHT22;10399;50.754;3.366;2023-12-20T04:33:57;7.30;99.90
20481;DHT22;10399;50.754;3.366;2023-12-20T04:36:24;7.30;99.90
20481;DHT22;10399;50.754;3.366;2023-12-20T04:38:54;7.30;99.90
20481;DHT22;10399;50.754;3.366;2023-12-20T04:41:21;7.20;99.90
20481;DHT22;10399;50.754;3.366;2023-12-20T04:43:48;7.40;99.90
20481;DHT22;10399;50.754;3.366;2023-12-20T04:46:15;7.40;99.90
20481;DHT22;10399;50.754;3.366;2023-12-20T04:48:42;7.50;99.90
20481;DHT22;10399;50.754;3.366;2023-12-20T04:51:09;7.50;99.90
20481;DHT22;10399;50.754;3.366;2023-12-20T04:53:36;7.40;99.90
20481;DHT22;10399;50.754;3.366;2023-12-20T04:56:04;7.50;99.90
20481;DHT22;10399;50.754;3.366;2023-12-20T04:58:31;7.40;99.90
20481;DHT22;10399;50.754;3.366;2023-12-20T05:00:58;7.40;99.90
20481;DHT22;10399;50.754;3.366;2023-12-20T05:03:25;7.40;99.90
20481;DHT22;10399;50.754;3.366;2023-12-20T05:05:52;7.40;99.90
20481;DHT22;10399;50.754;3.366;2023-12-20T05:08:19;7.60;99.90
20481;DHT22;10399;50.754;3.366;2023-12-20T05:10:46;7.60;99.90
20481;DHT22;10399;50.754;3.366;2023-12-20T05:13:13;7.60;99.90
20481;DHT22;10399;50.754;3.366;2023-12-20T05:15:40;7.50;99.90
20481;DHT22;10399;50.754;3.366;2023-12-20T05:18:07;7.50;99.90
20481;DHT22;10399;50.754;3.366;2023-12-20T05:20:34;7.50;99.90
20481;DHT22;10399;50.754;3.366;2023-12-20T05:23:02;7.50;99.90
20481;DHT22;10399;50.754;3.366;2023-12-20T05:25:30;7.40;99.90
20481;DHT22;10399;50.754;3.366;2023-12-20T05:27:58;7.50;99.90
20481;DHT22;10399;50.754;3.366;2023-12-20T05:30:25;7.40;99.90
20481;DHT22;10399;50.754;3.366;2023-12-20T05:32:53;7.50;99.90
20481;DHT22;10399;50.754;3.366;2023-12-20T05:35:20;7.60;99.90
20481;DHT22;10399;50.754;3.366;2023-12-20T05:37:51;7.50;99.90
20481;DHT22;10399;50.754;3.366;2023-12-20T05:40:19;7.50;99.90
20481;DHT22;10399;50.754;3.366;2023-12-20T05:42:46;7.50;99.90
20481;DHT22;10399;50.754;3.366;2023-12-20T05:45:14;7.50;99.90
20481;DHT22;10399;50.754;3.366;2023-12-20T05:47:41;7.50;99.90
20481;DHT22;10399;50.754;3.366;2023-12-20T05:50:08;7.40;99.90
20481;DHT22;10399;50.754;3.366;2023-12-20T05:52:36;7.40;99.90
20481;DHT22;10399;50.754;3.366;2023-12-20T05:55:03;7.50;99.90
20481;DHT22;10399;50.754;3.366;2023-12-20T05:57:30;7.40;99.90
20481;DHT22;10399;50.754;3.366;2023-12-20T05:59:57;7.40;99.90
20481;DHT22;10399;50.754;3.366;2023-12-20T06:02:24;7.50;99.90
20481;DHT22;10399;50.754;3.366;2023-12-20T06:04:51;7.50;99.90
20481;DHT22;10399;50.754;3.366;2023-12-20T06:07:18;7.60;99.90
20481;DHT22;10399;50.754;3.366;2023-12-20T06:09:46;7.60;99.90
20481;DHT22;10399;50.754;3.366;2023-12-20T06:12:13;7.70;99.90
20481;DHT22;10399;50.754;3.366;2023-12-20T06:14:40;7.50;99.90
20481;DHT22;10399;50.754;3.366;2023-12-20T06:17:07;7.50;99.90
20481;DHT22;10399;50.754;3.366;2023-12-20T06:19:34;7.50;99.90
20481;DHT22;10399;50.754;3.366;2023-12-20T06:22:04;7.70;99.90
20481;DHT22;10399;50.754;3.366;2023-12-20T06:24:33;7.60;99.90
20481;DHT22;10399;50.754;3.366;2023-12-20T06:27:01;7.60;99.90
20481;DHT22;10399;50.754;3.366;2023-12-20T06:29:28;7.60;99.90
20481;DHT22;10399;50.754;3.366;2023-12-20T06:31:55;7.50;99.90
20481;DHT22;10399;50.754;3.366;2023-12-20T06:34:22;7.50;99.90
20481;DHT22;10399;50.754;3.366;2023-12-20T06:36:50;7.50;99.90
20481;DHT22;10399;50.754;3.366;2023-12-20T06:39:17;7.50;99.90
20481;DHT22;10399;50.754;3.366;2023-12-20T06:41:44;7.60;99.90
20481;DHT22;10399;50.754;3.366;2023-12-20T06:44:11;7.60;99.90
20481;DHT22;10399;50.754;3.366;2023-12-20T06:46:38;7.70;99.90
20481;DHT22;10399;50.754;3.366;2023-12-20T06:49:05;7.60;99.90
20481;DHT22;10399;50.754;3.366;2023-12-20T06:51:32;7.60;99.90
20481;DHT22;10399;50.754;3.366;2023-12-20T06:53:59;7.60;99.90
20481;DHT22;10399;50.754;3.366;2023-12-20T06:56:26;7.60;99.90
20481;DHT22;10399;50.754;3.366;2023-12-20T06:58:57;7.50;99.90
20481;DHT22;10399;50.754;3.366;2023-12-20T07:01:36;7.60;99.90
20481;DHT22;10399;50.754;3.366;2023-12-20T07:04:11;7.60;99.90
20481;DHT22;10399;50.754;3.366;2023-12-20T07:06:54;7.60;99.90
20481;DHT22;10399;50.754;3.366;2023-12-20T07:09:24;7.60;99.90
20481;DHT22;10399;50.754;3.366;2023-12-20T07:11:53;7.60;99.90
20481;DHT22;10399;50.754;3.366;2023-12-20T07:14:23;7.50;99.90
20481;DHT22;10399;50.754;3.366;2023-12-20T07:16:53;7.40;99.90
20481;DHT22;10399;50.754;3.366;2023-12-20T07:19:20;7.40;99.90
20481;DHT22;10399;50.754;3.366;2023-12-20T07:21:47;7.50;99.90
20481;DHT22;10399;50.754;3.366;2023-12-20T07:24:15;7.40;99.90
20481;DHT22;10399;50.754;3.366;2023-12-20T07:26:42;7.40;99.90
20481;DHT22;10399;50.754;3.366;2023-12-20T07:29:09;7.50;99.90
20481;DHT22;10399;50.754;3.366;2023-12-20T07:31:37;7.50;99.90
20481;DHT22;10399;50.754;3.366;2023-12-20T07:34:05;7.60;99.90
20481;DHT22;10399;50.754;3.366;2023-12-20T07:36:32;7.60;99.90
20481;DHT22;10399;50.754;3.366;2023-12-20T07:38:59;7.60;99.90
20481;DHT22;10399;50.754;3.366;2023-12-20T07:41:29;7.60;99.90
20481;DHT22;10399;50.754;3.366;2023-12-20T07:43:56;7.50;99.90
20481;DHT22;10399;50.754;3.366;2023-12-20T07:46:24;7.40;99.90
20481;DHT22;10399;50.754;3.366;2023-12-20T07:48:51;7.50;99.90
20481;DHT22;10399;50.754;3.366;2023-12-20T07:51:18;7.50;99.90
20481;DHT22;10399;50.754;3.366;2023-12-20T07:53:45;7.30;99.90
20481;DHT22;10399;50.754;3.366;2023-12-20T07:56:16;7.30;99.90
20481;DHT22;10399;50.754;3.366;2023-12-20T07:58:44;7.50;99.90
20481;DHT22;10399;50.754;3.366;2023-12-20T08:01:19;7.30;99.90
20481;DHT22;10399;50.754;3.366;2023-12-20T08:03:49;7.40;99.90
20481;DHT22;10399;50.754;3.366;2023-12-20T08:06:16;7.30;99.90
20481;DHT22;10399;50.754;3.366;2023-12-20T08:08:44;7.30;99.90
20481;DHT22;10399;50.754;3.366;2023-12-20T08:11:18;7.20;99.90
20481;DHT22;10399;50.754;3.366;2023-12-20T08:13:45;7.30;99.90
20481;DHT22;10399;50.754;3.366;2023-12-20T08:16:12;7.30;99.90
20481;DHT22;10399;50.754;3.366;2023-12-20T08:18:40;7.50;99.90
20481;DHT22;10399;50.754;3.366;2023-12-20T08:21:07;7.40;99.90
20481;DHT22;10399;50.754;3.366;2023-12-20T08:23:35;7.40;99.90
20481;DHT22;10399;50.754;3.366;2023-12-20T08:26:08;7.40;99.90
20481;DHT22;10399;50.754;3.366;2023-12-20T08:28:36;7.40;99.90
20481;DHT22;10399;50.754;3.366;2023-12-20T08:31:04;7.40;99.90
20481;DHT22;10399;50.754;3.366;2023-12-20T08:33:31;7.60;99.90
20481;DHT22;10399;50.754;3.366;2023-12-20T08:35:59;7.60;99.90
20481;DHT22;10399;50.754;3.366;2023-12-20T08:38:31;7.60;99.90
20481;DHT22;10399;50.754;3.366;2023-12-20T08:40:59;7.50;99.90
20481;DHT22;10399;50.754;3.366;2023-12-20T08:43:28;7.60;99.90
20481;DHT22;10399;50.754;3.366;2023-12-20T08:45:55;7.60;99.90
20481;DHT22;10399;50.754;3.366;2023-12-20T08:48:22;7.70;99.90
20481;DHT22;10399;50.754;3.366;2023-12-20T08:50:49;7.70;99.90
20481;DHT22;10399;50.754;3.366;2023-12-20T08:53:18;7.70;99.90
20481;DHT22;10399;50.754;3.366;2023-12-20T08:55:46;7.80;99.90
20481;DHT22;10399;50.754;3.366;2023-12-20T08:58:13;7.70;99.90
20481;DHT22;10399;50.754;3.366;2023-12-20T09:00:40;7.80;99.90
20481;DHT22;10399;50.754;3.366;2023-12-20T09:03:08;8.00;99.90
20481;DHT22;10399;50.754;3.366;2023-12-20T09:05:35;8.00;99.90
20481;DHT22;10399;50.754;3.366;2023-12-20T09:08:02;8.10;99.90
20481;DHT22;10399;50.754;3.366;2023-12-20T09:10:29;8.10;99.90
20481;DHT22;10399;50.754;3.366;2023-12-20T09:12:56;8.10;99.90
20481;DHT22;10399;50.754;3.366;2023-12-20T09:15:25;8.20;99.90
20481;DHT22;10399;50.754;3.366;2023-12-20T09:17:53;8.30;99.90
20481;DHT22;10399;50.754;3.366;2023-12-20T09:20:20;8.40;99.90
20481;DHT22;10399;50.754;3.366;2023-12-20T09:22:48;8.40;99.90
20481;DHT22;10399;50.754;3.366;2023-12-20T09:25:15;8.40;99.90
20481;DHT22;10399;50.754;3.366;2023-12-20T09:27:46;8.60;99.90
20481;DHT22;10399;50.754;3.366;2023-12-20T09:30:14;8.60;99.90
20481;DHT22;10399;50.754;3.366;2023-12-20T09:32:53;8.70;99.90
20481;DHT22;10399;50.754;3.366;2023-12-20T09:35:21;8.80;99.90
20481;DHT22;10399;50.754;3.366;2023-12-20T09:37:49;8.80;99.90
20481;DHT22;10399;50.754;3.366;2023-12-20T09:40:19;8.90;99.90
20481;DHT22;10399;50.754;3.366;2023-12-20T09:43:10;8.90;99.90
20481;DHT22;10399;50.754;3.366;2023-12-20T09:45:39;9.00;99.90
20481;DHT22;10399;50.754;3.366;2023-12-20T09:48:07;8.90;99.90
20481;DHT22;10399;50.754;3.366;2023-12-20T09:50:41;9.10;99.90
20481;DHT22;10399;50.754;3.366;2023-12-20T09:53:14;9.20;99.90
20481;DHT22;10399;50.754;3.366;2023-12-20T09:55:42;9.20;99.90
20481;DHT22;10399;50.754;3.366;2023-12-20T09:58:09;9.20;99.90
20481;DHT22;10399;50.754;3.366;2023-12-20T10:00:37;9.10;99.90
20481;DHT22;10399;50.754;3.366;2023-12-20T10:03:05;9.30;99.90
20481;DHT22;10399;50.754;3.366;2023-12-20T10:05:33;9.30;99.90
20481;DHT22;10399;50.754;3.366;2023-12-20T10:08:01;9.40;99.90
20481;DHT22;10399;50.754;3.366;2023-12-20T10:10:29;9.50;99.90
20481;DHT22;10399;50.754;3.366;2023-12-20T10:13:12;9.60;99.90
20481;DHT22;10399;50.754;3.366;2023-12-20T10:15:40;9.60;99.90
20481;DHT22;10399;50.754;3.366;2023-12-20T10:18:09;9.50;99.90
20481;DHT22;10399;50.754;3.366;2023-12-20T10:20:38;9.40;99.90
20481;DHT22;10399;50.754;3.366;2023-12-20T10:23:07;9.40;99.90
20481;DHT22;10399;50.754;3.366;2023-12-20T10:25:34;9.60;99.90
20481;DHT22;10399;50.754;3.366;2023-12-20T10:28:36;9.80;99.90
20481;DHT22;10399;50.754;3.366;2023-12-20T10:31:06;9.60;99.90
20481;DHT22;10399;50.754;3.366;2023-12-20T10:33:35;9.70;99.90
20481;DHT22;10399;50.754;3.366;2023-12-20T10:36:03;9.70;99.90
20481;DHT22;10399;50.754;3.366;2023-12-20T10:38:30;9.60;99.90
20481;DHT22;10399;50.754;3.366;2023-12-20T10:40:58;9.40;99.90
20481;DHT22;10399;50.754;3.366;2023-12-20T10:43:27;9.40;99.90
20481;DHT22;10399;50.754;3.366;2023-12-20T10:45:56;9.60;99.90
20481;DHT22;10399;50.754;3.366;2023-12-20T10:48:24;9.80;99.90
20481;DHT22;10399;50.754;3.366;2023-12-20T10:51:00;9.80;99.90
20481;DHT22;10399;50.754;3.366;2023-12-20T10:53:27;9.90;99.90
20481;DHT22;10399;50.754;3.366;2023-12-20T10:56:00;10.00;99.90
20481;DHT22;10399;50.754;3.366;2023-12-20T10:58:29;9.80;99.90
20481;DHT22;10399;50.754;3.366;2023-12-20T11:01:04;9.90;99.90
20481;DHT22;10399;50.754;3.366;2023-12-20T11:03:35;10.00;99.90
20481;DHT22;10399;50.754;3.366;2023-12-20T11:14:52;9.90;99.90
20481;DHT22;10399;50.754;3.366;2023-12-20T11:17:21;9.90;99.90
20481;DHT22;10399;50.754;3.366;2023-12-20T11:22:29;10.00;99.90
20481;DHT22;10399;50.754;3.366;2023-12-20T11:25:08;10.10;99.90
20481;DHT22;10399;50.754;3.366;2023-12-20T11:27:37;10.00;99.90
20481;DHT22;10399;50.754;3.366;2023-12-20T11:30:07;10.00;99.90
20481;DHT22;10399;50.754;3.366;2023-12-20T11:32:37;10.10;99.90
20481;DHT22;10399;50.754;3.366;2023-12-20T11:35:30;10.20;99.90
20481;DHT22;10399;50.754;3.366;2023-12-20T11:37:58;10.30;99.90
20481;DHT22;10399;50.754;3.366;2023-12-20T11:40:25;10.30;99.90
20481;DHT22;10399;50.754;3.366;2023-12-20T11:42:52;10.40;99.90
20481;DHT22;10399;50.754;3.366;2023-12-20T11:45:23;10.40;99.90
20481;DHT22;10399;50.754;3.366;2023-12-20T11:47:53;10.50;99.90
20481;DHT22;10399;50.754;3.366;2023-12-20T11:50:23;10.40;99.90
20481;DHT22;10399;50.754;3.366;2023-12-20T11:52:52;10.40;99.90
20481;DHT22;10399;50.754;3.366;2023-12-20T11:55:20;10.50;99.90
20481;DHT22;10399;50.754;3.366;2023-12-20T11:57:47;10.40;99.90
20481;DHT22;10399;50.754;3.366;2023-12-20T12:00:15;10.40;99.90
20481;DHT22;10399;50.754;3.366;2023-12-20T12:02:42;10.40;99.90
20481;DHT22;10399;50.754;3.366;2023-12-20T12:05:12;10.60;99.90
20481;DHT22;10399;50.754;3.366;2023-12-20T12:07:40;10.60;99.90
20481;DHT22;10399;50.754;3.366;2023-12-20T12:10:07;10.50;99.90
20481;DHT22;10399;50.754;3.366;2023-12-20T12:12:35;10.60;99.90
20481;DHT22;10399;50.754;3.366;2023-12-20T12:15:02;10.60;99.90
20481;DHT22;10399;50.754;3.366;2023-12-20T12:17:29;10.60;99.90
20481;DHT22;10399;50.754;3.366;2023-12-20T12:20:06;10.60;99.90
20481;DHT22;10399;50.754;3.366;2023-12-20T12:22:37;10.60;99.90
20481;DHT22;10399;50.754;3.366;2023-12-20T12:25:12;10.80;99.90
20481;DHT22;10399;50.754;3.366;2023-12-20T12:27:40;10.90;99.90
20481;DHT22;10399;50.754;3.366;2023-12-20T12:30:09;11.00;99.90
20481;DHT22;10399;50.754;3.366;2023-12-20T12:32:36;11.10;99.90
20481;DHT22;10399;50.754;3.366;2023-12-20T12:35:05;11.00;99.90
20481;DHT22;10399;50.754;3.366;2023-12-20T12:37:40;11.10;99.90
20481;DHT22;10399;50.754;3.366;2023-12-20T12:40:12;11.10;99.90
20481;DHT22;10399;50.754;3.366;2023-12-20T12:42:41;11.10;99.90
20481;DHT22;10399;50.754;3.366;2023-12-20T12:45:12;11.20;99.90
20481;DHT22;10399;50.754;3.366;2023-12-20T12:47:39;11.30;99.90
20481;DHT22;10399;50.754;3.366;2023-12-20T12:50:07;11.30;99.90
20481;DHT22;10399;50.754;3.366;2023-12-20T12:52:35;11.20;99.90
20481;DHT22;10399;50.754;3.366;2023-12-20T12:55:03;11.30;99.90
20481;DHT22;10399;50.754;3.366;2023-12-20T12:57:32;11.30;99.90
20481;DHT22;10399;50.754;3.366;2023-12-20T13:00:03;11.40;99.90
20481;DHT22;10399;50.754;3.366;2023-12-20T13:02:30;11.50;99.90
20481;DHT22;10399;50.754;3.366;2023-12-20T13:04:57;11.40;99.90
20481;DHT22;10399;50.754;3.366;2023-12-20T13:07:24;11.40;99.90
20481;DHT22;10399;50.754;3.366;2023-12-20T13:09:52;11.40;99.90
20481;DHT22;10399;50.754;3.366;2023-12-20T13:12:19;11.30;99.90
20481;DHT22;10399;50.754;3.366;2023-12-20T13:14:46;11.40;99.90
20481;DHT22;10399;50.754;3.366;2023-12-20T13:17:16;11.40;99.90
20481;DHT22;10399;50.754;3.366;2023-12-20T13:19:46;11.50;99.90
20481;DHT22;10399;50.754;3.366;2023-12-20T13:22:13;11.40;99.90
20481;DHT22;10399;50.754;3.366;2023-12-20T13:24:40;11.40;99.90
20481;DHT22;10399;50.754;3.366;2023-12-20T13:27:07;11.50;99.90
20481;DHT22;10399;50.754;3.366;2023-12-20T13:29:34;11.60;99.90
20481;DHT22;10399;50.754;3.366;2023-12-20T13:32:06;11.60;99.90
20481;DHT22;10399;50.754;3.366;2023-12-20T13:34:33;11.40;99.90
20481;DHT22;10399;50.754;3.366;2023-12-20T13:37:00;11.30;99.90
20481;DHT22;10399;50.754;3.366;2023-12-20T13:39:27;11.20;99.90
20481;DHT22;10399;50.754;3.366;2023-12-20T13:41:54;11.10;99.90
20481;DHT22;10399;50.754;3.366;2023-12-20T13:44:25;11.20;99.90
20481;DHT22;10399;50.754;3.366;2023-12-20T13:46:55;11.20;99.90
20481;DHT22;10399;50.754;3.366;2023-12-20T13:49:22;11.40;99.90
20481;DHT22;10399;50.754;3.366;2023-12-20T13:51:54;11.50;99.90
20481;DHT22;10399;50.754;3.366;2023-12-20T13:54:22;11.50;99.90
20481;DHT22;10399;50.754;3.366;2023-12-20T13:56:56;11.50;99.90
20481;DHT22;10399;50.754;3.366;2023-12-20T13:59:38;11.50;99.90
20481;DHT22;10399;50.754;3.366;2023-12-20T14:02:05;11.40;99.90
20481;DHT22;10399;50.754;3.366;2023-12-20T14:04:33;11.30;99.90
20481;DHT22;10399;50.754;3.366;2023-12-20T14:07:10;11.40;99.90
20481;DHT22;10399;50.754;3.366;2023-12-20T14:09:39;11.30;99.90
20481;DHT22;10399;50.754;3.366;2023-12-20T14:12:13;11.20;99.90
20481;DHT22;10399;50.754;3.366;2023-12-20T14:14:40;11.30;99.90
20481;DHT22;10399;50.754;3.366;2023-12-20T14:17:07;11.30;99.90
20481;DHT22;10399;50.754;3.366;2023-12-20T14:19:34;11.30;99.90
20481;DHT22;10399;50.754;3.366;2023-12-20T14:22:02;11.40;99.90
20481;DHT22;10399;50.754;3.366;2023-12-20T14:24:31;11.40;99.90
20481;DHT22;10399;50.754;3.366;2023-12-20T14:26:58;11.30;99.90
20481;DHT22;10399;50.754;3.366;2023-12-20T14:29:25;11.30;99.90
20481;DHT22;10399;50.754;3.366;2023-12-20T14:31:54;11.40;99.90
20481;DHT22;10399;50.754;3.366;2023-12-20T14:34:21;11.20;99.90
20481;DHT22;10399;50.754;3.366;2023-12-20T14:36:49;11.30;99.90
20481;DHT22;10399;50.754;3.366;2023-12-20T14:39:16;11.30;99.90
20481;DHT22;10399;50.754;3.366;2023-12-20T14:41:44;11.40;99.90
20481;DHT22;10399;50.754;3.366;2023-12-20T14:44:11;11.50;99.90
20481;DHT22;10399;50.754;3.366;2023-12-20T14:46:38;11.50;99.90
20481;DHT22;10399;50.754;3.366;2023-12-20T14:49:08;11.60;99.90
20481;DHT22;10399;50.754;3.366;2023-12-20T14:51:35;11.50;99.90
20481;DHT22;10399;50.754;3.366;2023-12-20T14:54:04;11.60;99.90
20481;DHT22;10399;50.754;3.366;2023-12-20T14:56:34;11.60;99.90
20481;DHT22;10399;50.754;3.366;2023-12-20T14:59:02;11.50;99.90
20481;DHT22;10399;50.754;3.366;2023-12-20T15:01:29;11.50;99.90
20481;DHT22;10399;50.754;3.366;2023-12-20T15:03:58;11.70;99.90
20481;DHT22;10399;50.754;3.366;2023-12-20T15:06:25;11.60;99.90
20481;DHT22;10399;50.754;3.366;2023-12-20T15:08:53;11.60;99.90
20481;DHT22;10399;50.754;3.366;2023-12-20T15:11:19;11.60;99.90
20481;DHT22;10399;50.754;3.366;2023-12-20T15:13:46;11.50;99.90
20481;DHT22;10399;50.754;3.366;2023-12-20T15:16:22;11.40;99.90
20481;DHT22;10399;50.754;3.366;2023-12-20T15:18:50;11.30;99.90
20481;DHT22;10399;50.754;3.366;2023-12-20T15:21:17;11.40;99.90
20481;DHT22;10399;50.754;3.366;2023-12-20T15:23:45;11.40;99.90
20481;DHT22;10399;50.754;3.366;2023-12-20T15:26:19;11.50;99.90
20481;DHT22;10399;50.754;3.366;2023-12-20T15:28:46;11.30;99.90
20481;DHT22;10399;50.754;3.366;2023-12-20T15:31:14;11.40;99.90
20481;DHT22;10399;50.754;3.366;2023-12-20T15:33:42;11.40;99.90
20481;DHT22;10399;50.754;3.366;2023-12-20T15:36:09;11.50;99.90
20481;DHT22;10399;50.754;3.366;2023-12-20T15:38:36;11.60;99.90
20481;DHT22;10399;50.754;3.366;2023-12-20T15:41:03;11.60;99.90
20481;DHT22;10399;50.754;3.366;2023-12-20T15:43:30;11.50;99.90
20481;DHT22;10399;50.754;3.366;2023-12-20T15:45:58;11.50;99.90
20481;DHT22;10399;50.754;3.366;2023-12-20T15:48:25;11.30;99.90
20481;DHT22;10399;50.754;3.366;2023-12-20T15:50:56;11.40;99.90
20481;DHT22;10399;50.754;3.366;2023-12-20T15:53:26;11.30;99.90
20481;DHT22;10399;50.754;3.366;2023-12-20T15:55:53;11.40;99.90
20481;DHT22;10399;50.754;3.366;2023-12-20T15:58:20;11.30;99.90
20481;DHT22;10399;50.754;3.366;2023-12-20T16:00:47;11.50;99.90
20481;DHT22;10399;50.754;3.366;2023-12-20T16:03:16;11.50;99.90
20481;DHT22;10399;50.754;3.366;2023-12-20T16:05:52;11.40;99.90
20481;DHT22;10399;50.754;3.366;2023-12-20T16:08:20;11.40;99.90
20481;DHT22;10399;50.754;3.366;2023-12-20T16:10:47;11.50;99.90